sensor_id;sensor_type;location;lat;lon;timestamp;P1;durP1;ratioP1;P2;durP2;ratioP2
77078;SDS011;66004;55.096;38.760;2023-03-23T00:00:04;8.00;;;3.85;;
77078;SDS011;66004;55.096;38.760;2023-03-23T00:02:31;5.22;;;3.30;;
77078;SDS011;66004;55.096;38.760;2023-03-23T00:05:04;5.72;;;2.58;;
77078;SDS011;66004;55.096;38.760;2023-03-23T00:07:31;3.03;;;1.60;;
77078;SDS011;66004;55.096;38.760;2023-03-23T00:09:57;2.25;;;1.35;;
77078;SDS011;66004;55.096;38.760;2023-03-23T00:12:24;2.83;;;1.58;;
77078;SDS011;66004;55.096;38.760;2023-03-23T00:15:07;3.40;;;1.80;;
77078;SDS011;66004;55.096;38.760;2023-03-23T00:17:33;2.38;;;1.25;;
77078;SDS011;66004;55.096;38.760;2023-03-23T00:20:00;2.08;;;1.10;;
77078;SDS011;66004;55.096;38.760;2023-03-23T00:22:26;2.42;;;1.35;;
77078;SDS011;66004;55.096;38.760;2023-03-23T00:24:53;1.70;;;1.02;;
77078;SDS011;66004;55.096;38.760;2023-03-23T00:27:18;1.95;;;1.00;;
77078;SDS011;66004;55.096;38.760;2023-03-23T00:29:47;2.03;;;1.10;;
77078;SDS011;66004;55.096;38.760;2023-03-23T00:32:17;2.53;;;1.17;;
77078;SDS011;66004;55.096;38.760;2023-03-23T00:34:45;1.75;;;1.25;;
77078;SDS011;66004;55.096;38.760;2023-03-23T00:37:13;1.23;;;0.80;;
77078;SDS011;66004;55.096;38.760;2023-03-23T00:39:41;2.72;;;0.98;;
77078;SDS011;66004;55.096;38.760;2023-03-23T00:42:10;1.60;;;1.10;;
77078;SDS011;66004;55.096;38.760;2023-03-23T00:44:37;2.80;;;1.00;;
77078;SDS011;66004;55.096;38.760;2023-03-23T00:47:04;2.30;;;1.13;;
77078;SDS011;66004;55.096;38.760;2023-03-23T00:49:32;1.77;;;1.10;;
77078;SDS011;66004;55.096;38.760;2023-03-23T00:52:00;1.42;;;1.00;;
77078;SDS011;66004;55.096;38.760;2023-03-23T00:54:27;1.58;;;1.10;;
77078;SDS011;66004;55.096;38.760;2023-03-23T00:56:52;2.72;;;1.20;;
77078;SDS011;66004;55.096;38.760;2023-03-23T00:59:19;2.15;;;1.13;;
77078;SDS011;66004;55.096;38.760;2023-03-23T01:01:46;1.73;;;1.13;;
77078;SDS011;66004;55.096;38.760;2023-03-23T01:04:12;1.20;;;0.80;;
77078;SDS011;66004;55.096;38.760;2023-03-23T01:06:38;1.42;;;0.90;;
77078;SDS011;66004;55.096;38.760;2023-03-23T01:09:13;1.38;;;0.93;;
77078;SDS011;66004;55.096;38.760;2023-03-23T01:11:40;1.92;;;1.00;;
77078;SDS011;66004;55.096;38.760;2023-03-23T01:14:07;2.25;;;1.10;;
77078;SDS011;66004;55.096;38.760;2023-03-23T01:16:33;1.95;;;0.90;;
77078;SDS011;66004;55.096;38.760;2023-03-23T01:18:58;1.98;;;1.10;;
77078;SDS011;66004;55.096;38.760;2023-03-23T01:21:24;2.60;;;1.05;;
77078;SDS011;66004;55.096;38.760;2023-03-23T01:23:50;1.95;;;1.00;;
77078;SDS011;66004;55.096;38.760;2023-03-23T01:26:17;1.80;;;1.00;;
77078;SDS011;66004;55.096;38.760;2023-03-23T01:28:45;1.90;;;0.90;;
77078;SDS011;66004;55.096;38.760;2023-03-23T01:31:12;2.80;;;1.23;;
77078;SDS011;66004;55.096;38.760;2023-03-23T01:33:40;2.35;;;1.02;;
77078;SDS011;66004;55.096;38.760;2023-03-23T01:36:10;2.13;;;1.00;;
77078;SDS011;66004;55.096;38.760;2023-03-23T01:38:37;1.52;;;0.93;;
77078;SDS011;66004;55.096;38.760;2023-03-23T01:41:03;4.93;;;1.15;;
77078;SDS011;66004;55.096;38.760;2023-03-23T01:43:29;1.40;;;0.80;;
77078;SDS011;66004;55.096;38.760;2023-03-23T01:45:55;1.42;;;0.88;;
77078;SDS011;66004;55.096;38.760;2023-03-23T01:48:54;1.75;;;1.10;;
77078;SDS011;66004;55.096;38.760;2023-03-23T01:51:14;3.00;;;1.15;;
77078;SDS011;66004;55.096;38.760;2023-03-23T01:53:43;1.95;;;1.10;;
77078;SDS011;66004;55.096;38.760;2023-03-23T01:56:18;2.53;;;1.10;;
77078;SDS011;66004;55.096;38.760;2023-03-23T01:58:50;3.08;;;1.25;;
77078;SDS011;66004;55.096;38.760;2023-03-23T02:01:16;4.25;;;1.00;;
77078;SDS011;66004;55.096;38.760;2023-03-23T02:03:42;2.20;;;1.20;;
77078;SDS011;66004;55.096;38.760;2023-03-23T02:06:10;1.92;;;1.00;;
77078;SDS011;66004;55.096;38.760;2023-03-23T02:08:36;2.38;;;1.30;;
77078;SDS011;66004;55.096;38.760;2023-03-23T02:11:16;1.83;;;0.90;;
77078;SDS011;66004;55.096;38.760;2023-03-23T02:13:44;2.78;;;1.30;;
77078;SDS011;66004;55.096;38.760;2023-03-23T02:16:20;3.03;;;1.33;;
77078;SDS011;66004;55.096;38.760;2023-03-23T02:18:57;1.98;;;1.20;;
77078;SDS011;66004;55.096;38.760;2023-03-23T02:30:43;2.30;;;1.35;;
77078;SDS011;66004;55.096;38.760;2023-03-23T02:33:33;3.00;;;1.30;;
77078;SDS011;66004;55.096;38.760;2023-03-23T02:36:22;3.05;;;1.27;;
77078;SDS011;66004;55.096;38.760;2023-03-23T02:39:12;2.72;;;1.30;;
77078;SDS011;66004;55.096;38.760;2023-03-23T02:41:43;2.13;;;1.23;;
77078;SDS011;66004;55.096;38.760;2023-03-23T02:44:14;2.33;;;1.20;;
77078;SDS011;66004;55.096;38.760;2023-03-23T02:46:41;5.57;;;1.63;;
77078;SDS011;66004;55.096;38.760;2023-03-23T02:49:09;2.20;;;1.17;;
77078;SDS011;66004;55.096;38.760;2023-03-23T02:52:47;3.00;;;1.67;;
77078;SDS011;66004;55.096;38.760;2023-03-23T02:55:15;4.00;;;1.73;;
77078;SDS011;66004;55.096;38.760;2023-03-23T02:57:43;5.32;;;1.77;;
77078;SDS011;66004;55.096;38.760;2023-03-23T03:00:12;3.47;;;1.63;;
77078;SDS011;66004;55.096;38.760;2023-03-23T03:02:41;5.05;;;1.65;;
77078;SDS011;66004;55.096;38.760;2023-03-23T03:10:43;6.35;;;1.50;;
77078;SDS011;66004;55.096;38.760;2023-03-23T03:13:14;5.50;;;2.13;;
77078;SDS011;66004;55.096;38.760;2023-03-23T03:15:51;6.35;;;2.20;;
77078;SDS011;66004;55.096;38.760;2023-03-23T03:21:27;4.97;;;2.70;;
77078;SDS011;66004;55.096;38.760;2023-03-23T03:23:54;4.45;;;2.40;;
77078;SDS011;66004;55.096;38.760;2023-03-23T03:26:26;4.15;;;2.03;;
77078;SDS011;66004;55.096;38.760;2023-03-23T03:28:53;5.90;;;2.58;;
77078;SDS011;66004;55.096;38.760;2023-03-23T03:31:20;4.72;;;2.15;;
77078;SDS011;66004;55.096;38.760;2023-03-23T03:33:51;4.55;;;2.70;;
77078;SDS011;66004;55.096;38.760;2023-03-23T03:36:21;7.20;;;2.72;;
77078;SDS011;66004;55.096;38.760;2023-03-23T03:38:52;4.72;;;2.40;;
77078;SDS011;66004;55.096;38.760;2023-03-23T03:41:19;8.13;;;2.65;;
77078;SDS011;66004;55.096;38.760;2023-03-23T03:43:45;6.32;;;2.35;;
77078;SDS011;66004;55.096;38.760;2023-03-23T03:46:11;6.47;;;2.78;;
77078;SDS011;66004;55.096;38.760;2023-03-23T03:48:36;8.02;;;2.90;;
77078;SDS011;66004;55.096;38.760;2023-03-23T03:51:02;6.75;;;2.53;;
77078;SDS011;66004;55.096;38.760;2023-03-23T03:53:28;6.88;;;2.80;;
77078;SDS011;66004;55.096;38.760;2023-03-23T03:55:55;7.40;;;2.72;;
77078;SDS011;66004;55.096;38.760;2023-03-23T03:58:24;11.52;;;3.03;;
77078;SDS011;66004;55.096;38.760;2023-03-23T04:00:50;5.88;;;2.80;;
77078;SDS011;66004;55.096;38.760;2023-03-23T04:03:18;5.60;;;3.08;;
77078;SDS011;66004;55.096;38.760;2023-03-23T04:05:43;8.18;;;2.88;;
77078;SDS011;66004;55.096;38.760;2023-03-23T04:08:10;8.45;;;3.13;;
77078;SDS011;66004;55.096;38.760;2023-03-23T04:10:36;7.38;;;2.80;;
77078;SDS011;66004;55.096;38.760;2023-03-23T04:13:01;9.05;;;3.10;;
77078;SDS011;66004;55.096;38.760;2023-03-23T04:15:29;7.45;;;2.95;;
77078;SDS011;66004;55.096;38.760;2023-03-23T04:17:55;9.25;;;3.58;;
77078;SDS011;66004;55.096;38.760;2023-03-23T04:20:22;9.55;;;3.65;;
77078;SDS011;66004;55.096;38.760;2023-03-23T04:25:17;9.48;;;3.60;;
77078;SDS011;66004;55.096;38.760;2023-03-23T04:27:48;10.88;;;4.22;;
77078;SDS011;66004;55.096;38.760;2023-03-23T04:30:21;7.45;;;3.67;;
77078;SDS011;66004;55.096;38.760;2023-03-23T04:32:50;9.48;;;4.05;;
77078;SDS011;66004;55.096;38.760;2023-03-23T04:35:17;14.10;;;4.82;;
77078;SDS011;66004;55.096;38.760;2023-03-23T04:37:44;7.43;;;4.10;;
77078;SDS011;66004;55.096;38.760;2023-03-23T04:40:11;10.07;;;4.10;;
77078;SDS011;66004;55.096;38.760;2023-03-23T04:42:40;10.82;;;4.30;;
77078;SDS011;66004;55.096;38.760;2023-03-23T04:45:10;10.63;;;4.20;;
77078;SDS011;66004;55.096;38.760;2023-03-23T04:47:39;9.07;;;4.03;;
77078;SDS011;66004;55.096;38.760;2023-03-23T04:50:12;9.48;;;4.90;;
77078;SDS011;66004;55.096;38.760;2023-03-23T04:52:38;9.85;;;4.18;;
77078;SDS011;66004;55.096;38.760;2023-03-23T04:55:08;13.85;;;5.60;;
77078;SDS011;66004;55.096;38.760;2023-03-23T04:57:34;9.85;;;3.92;;
77078;SDS011;66004;55.096;38.760;2023-03-23T05:00:01;10.40;;;4.80;;
77078;SDS011;66004;55.096;38.760;2023-03-23T05:02:33;8.60;;;4.20;;
77078;SDS011;66004;55.096;38.760;2023-03-23T05:05:07;11.57;;;5.20;;
77078;SDS011;66004;55.096;38.760;2023-03-23T05:07:36;10.63;;;4.40;;
77078;SDS011;66004;55.096;38.760;2023-03-23T05:10:03;11.70;;;5.07;;
77078;SDS011;66004;55.096;38.760;2023-03-23T05:12:29;9.77;;;4.25;;
77078;SDS011;66004;55.096;38.760;2023-03-23T05:14:55;9.45;;;4.60;;
77078;SDS011;66004;55.096;38.760;2023-03-23T05:17:20;9.52;;;4.75;;
77078;SDS011;66004;55.096;38.760;2023-03-23T05:19:49;11.60;;;4.88;;
77078;SDS011;66004;55.096;38.760;2023-03-23T05:22:15;9.93;;;4.55;;
77078;SDS011;66004;55.096;38.760;2023-03-23T05:24:41;12.00;;;5.85;;
77078;SDS011;66004;55.096;38.760;2023-03-23T05:29:34;8.68;;;4.72;;
77078;SDS011;66004;55.096;38.760;2023-03-23T05:32:02;11.75;;;4.72;;
77078;SDS011;66004;55.096;38.760;2023-03-23T05:34:29;9.52;;;4.93;;
77078;SDS011;66004;55.096;38.760;2023-03-23T05:36:57;9.15;;;4.60;;
77078;SDS011;66004;55.096;38.760;2023-03-23T05:39:23;11.52;;;5.25;;
77078;SDS011;66004;55.096;38.760;2023-03-23T05:41:49;10.93;;;4.95;;
77078;SDS011;66004;55.096;38.760;2023-03-23T05:44:15;9.60;;;5.03;;
77078;SDS011;66004;55.096;38.760;2023-03-23T05:46:41;9.85;;;4.70;;
77078;SDS011;66004;55.096;38.760;2023-03-23T05:49:06;15.20;;;5.57;;
77078;SDS011;66004;55.096;38.760;2023-03-23T05:51:32;10.10;;;4.72;;
77078;SDS011;66004;55.096;38.760;2023-03-23T05:53:58;10.18;;;4.53;;
77078;SDS011;66004;55.096;38.760;2023-03-23T05:56:24;10.93;;;4.70;;
77078;SDS011;66004;55.096;38.760;2023-03-23T06:01:15;9.65;;;4.70;;
77078;SDS011;66004;55.096;38.760;2023-03-23T06:03:40;7.55;;;4.45;;
77078;SDS011;66004;55.096;38.760;2023-03-23T06:06:06;11.93;;;5.18;;
77078;SDS011;66004;55.096;38.760;2023-03-23T06:08:36;11.38;;;5.32;;
77078;SDS011;66004;55.096;38.760;2023-03-23T06:13:28;9.82;;;4.82;;
77078;SDS011;66004;55.096;38.760;2023-03-23T06:15:56;11.02;;;5.10;;
77078;SDS011;66004;55.096;38.760;2023-03-23T06:18:23;13.65;;;4.78;;
77078;SDS011;66004;55.096;38.760;2023-03-23T06:23:14;12.13;;;4.57;;
77078;SDS011;66004;55.096;38.760;2023-03-23T06:28:05;12.07;;;4.95;;
77078;SDS011;66004;55.096;38.760;2023-03-23T06:32:56;11.05;;;4.43;;
77078;SDS011;66004;55.096;38.760;2023-03-23T06:37:47;12.18;;;4.88;;
77078;SDS011;66004;55.096;38.760;2023-03-23T06:42:38;9.85;;;4.18;;
77078;SDS011;66004;55.096;38.760;2023-03-23T06:47:30;9.10;;;4.47;;
77078;SDS011;66004;55.096;38.760;2023-03-23T06:52:24;8.82;;;4.32;;
77078;SDS011;66004;55.096;38.760;2023-03-23T06:54:50;10.57;;;4.95;;
77078;SDS011;66004;55.096;38.760;2023-03-23T06:57:17;9.95;;;5.13;;
77078;SDS011;66004;55.096;38.760;2023-03-23T06:59:43;9.73;;;4.82;;
77078;SDS011;66004;55.096;38.760;2023-03-23T07:04:39;14.52;;;4.43;;
77078;SDS011;66004;55.096;38.760;2023-03-23T07:07:07;11.55;;;4.30;;
77078;SDS011;66004;55.096;38.760;2023-03-23T07:09:33;18.55;;;8.57;;
77078;SDS011;66004;55.096;38.760;2023-03-23T07:14:24;18.63;;;8.65;;
77078;SDS011;66004;55.096;38.760;2023-03-23T07:19:15;12.63;;;6.53;;
77078;SDS011;66004;55.096;38.760;2023-03-23T07:21:41;10.05;;;4.85;;
77078;SDS011;66004;55.096;38.760;2023-03-23T07:26:36;11.90;;;4.95;;
77078;SDS011;66004;55.096;38.760;2023-03-23T07:31:27;9.43;;;4.82;;
77078;SDS011;66004;55.096;38.760;2023-03-23T07:36:18;11.38;;;5.35;;
77078;SDS011;66004;55.096;38.760;2023-03-23T07:41:09;12.77;;;5.38;;
77078;SDS011;66004;55.096;38.760;2023-03-23T07:46:00;12.90;;;5.88;;
77078;SDS011;66004;55.096;38.760;2023-03-23T07:48:26;13.35;;;5.70;;
77078;SDS011;66004;55.096;38.760;2023-03-23T07:53:17;11.90;;;5.40;;
77078;SDS011;66004;55.096;38.760;2023-03-23T07:58:08;12.15;;;6.07;;
77078;SDS011;66004;55.096;38.760;2023-03-23T08:02:59;11.02;;;5.65;;
77078;SDS011;66004;55.096;38.760;2023-03-23T08:05:26;11.27;;;5.22;;
77078;SDS011;66004;55.096;38.760;2023-03-23T08:07:52;13.52;;;5.90;;
77078;SDS011;66004;55.096;38.760;2023-03-23T08:10:19;11.77;;;5.57;;
77078;SDS011;66004;55.096;38.760;2023-03-23T08:12:52;12.25;;;5.82;;
77078;SDS011;66004;55.096;38.760;2023-03-23T08:15:20;12.55;;;6.35;;
77078;SDS011;66004;55.096;38.760;2023-03-23T08:17:47;11.57;;;5.28;;
77078;SDS011;66004;55.096;38.760;2023-03-23T08:20:13;12.52;;;5.82;;
77078;SDS011;66004;55.096;38.760;2023-03-23T08:22:40;11.52;;;5.63;;
77078;SDS011;66004;55.096;38.760;2023-03-23T08:25:08;15.23;;;6.40;;
77078;SDS011;66004;55.096;38.760;2023-03-23T08:27:35;13.15;;;6.70;;
77078;SDS011;66004;55.096;38.760;2023-03-23T08:30:02;12.60;;;6.38;;
77078;SDS011;66004;55.096;38.760;2023-03-23T08:32:30;11.45;;;6.43;;
77078;SDS011;66004;55.096;38.760;2023-03-23T08:37:22;16.13;;;7.07;;
77078;SDS011;66004;55.096;38.760;2023-03-23T08:42:16;13.30;;;6.55;;
77078;SDS011;66004;55.096;38.760;2023-03-23T08:44:43;14.20;;;6.65;;
77078;SDS011;66004;55.096;38.760;2023-03-23T08:47:09;12.70;;;6.05;;
77078;SDS011;66004;55.096;38.760;2023-03-23T09:21:59;16.10;;;8.27;;
77078;SDS011;66004;55.096;38.760;2023-03-23T09:24:26;16.75;;;8.82;;
77078;SDS011;66004;55.096;38.760;2023-03-23T09:29:17;16.98;;;8.35;;
77078;SDS011;66004;55.096;38.760;2023-03-23T09:34:11;15.65;;;7.90;;
77078;SDS011;66004;55.096;38.760;2023-03-23T09:36:37;15.65;;;7.15;;
77078;SDS011;66004;55.096;38.760;2023-03-23T09:39:05;15.73;;;8.18;;
77078;SDS011;66004;55.096;38.760;2023-03-23T09:41:43;14.38;;;6.90;;
77078;SDS011;66004;55.096;38.760;2023-03-23T09:44:22;15.75;;;8.30;;
77078;SDS011;66004;55.096;38.760;2023-03-23T09:49:52;15.32;;;7.45;;
77078;SDS011;66004;55.096;38.760;2023-03-23T09:52:22;17.13;;;8.70;;
77078;SDS011;66004;55.096;38.760;2023-03-23T09:54:58;17.30;;;8.25;;
77078;SDS011;66004;55.096;38.760;2023-03-23T09:57:33;16.15;;;8.70;;
77078;SDS011;66004;55.096;38.760;2023-03-23T10:00:17;15.23;;;8.38;;
77078;SDS011;66004;55.096;38.760;2023-03-23T10:03:06;17.15;;;8.50;;
77078;SDS011;66004;55.096;38.760;2023-03-23T10:05:51;14.38;;;7.80;;
77078;SDS011;66004;55.096;38.760;2023-03-23T10:16:28;16.92;;;8.52;;
77078;SDS011;66004;55.096;38.760;2023-03-23T10:18:58;15.15;;;7.50;;
77078;SDS011;66004;55.096;38.760;2023-03-23T10:21:26;15.25;;;7.60;;
77078;SDS011;66004;55.096;38.760;2023-03-23T10:23:59;14.30;;;7.60;;
77078;SDS011;66004;55.096;38.760;2023-03-23T10:26:35;14.88;;;8.20;;
77078;SDS011;66004;55.096;38.760;2023-03-23T10:29:21;14.40;;;6.95;;
77078;SDS011;66004;55.096;38.760;2023-03-23T10:31:51;13.15;;;7.65;;
77078;SDS011;66004;55.096;38.760;2023-03-23T10:34:45;15.27;;;7.97;;
77078;SDS011;66004;55.096;38.760;2023-03-23T10:37:26;13.73;;;7.72;;
77078;SDS011;66004;55.096;38.760;2023-03-23T10:39:58;19.73;;;10.90;;
77078;SDS011;66004;55.096;38.760;2023-03-23T10:44:53;14.45;;;7.50;;
77078;SDS011;66004;55.096;38.760;2023-03-23T10:47:19;15.25;;;8.02;;
77078;SDS011;66004;55.096;38.760;2023-03-23T10:49:52;15.20;;;7.50;;
77078;SDS011;66004;55.096;38.760;2023-03-23T10:52:43;15.52;;;7.70;;
77078;SDS011;66004;55.096;38.760;2023-03-23T10:55:11;14.35;;;7.22;;
77078;SDS011;66004;55.096;38.760;2023-03-23T10:58:01;11.27;;;5.50;;
77078;SDS011;66004;55.096;38.760;2023-03-23T11:00:29;10.60;;;5.55;;
77078;SDS011;66004;55.096;38.760;2023-03-23T11:05:38;8.82;;;5.10;;
77078;SDS011;66004;55.096;38.760;2023-03-23T11:08:14;9.55;;;5.32;;
77078;SDS011;66004;55.096;38.760;2023-03-23T11:10:47;10.95;;;5.75;;
77078;SDS011;66004;55.096;38.760;2023-03-23T11:13:16;9.68;;;5.43;;
77078;SDS011;66004;55.096;38.760;2023-03-23T11:15:44;17.92;;;5.85;;
77078;SDS011;66004;55.096;38.760;2023-03-23T11:18:21;9.45;;;5.40;;
77078;SDS011;66004;55.096;38.760;2023-03-23T11:20:52;8.52;;;4.93;;
77078;SDS011;66004;55.096;38.760;2023-03-23T11:23:26;10.50;;;5.63;;
77078;SDS011;66004;55.096;38.760;2023-03-23T11:28:44;14.40;;;5.55;;
77078;SDS011;66004;55.096;38.760;2023-03-23T11:31:12;8.85;;;5.53;;
77078;SDS011;66004;55.096;38.760;2023-03-23T11:33:41;9.82;;;5.30;;
77078;SDS011;66004;55.096;38.760;2023-03-23T11:36:28;10.02;;;5.45;;
77078;SDS011;66004;55.096;38.760;2023-03-23T11:41:53;7.93;;;4.95;;
77078;SDS011;66004;55.096;38.760;2023-03-23T11:44:23;8.75;;;4.50;;
77078;SDS011;66004;55.096;38.760;2023-03-23T11:46:58;7.85;;;4.60;;
77078;SDS011;66004;55.096;38.760;2023-03-23T11:49:43;8.68;;;4.63;;
77078;SDS011;66004;55.096;38.760;2023-03-23T11:52:27;9.30;;;6.15;;
77078;SDS011;66004;55.096;38.760;2023-03-23T11:55:07;16.70;;;8.77;;
77078;SDS011;66004;55.096;38.760;2023-03-23T11:57:37;13.73;;;7.03;;
77078;SDS011;66004;55.096;38.760;2023-03-23T12:00:11;13.88;;;7.25;;
77078;SDS011;66004;55.096;38.760;2023-03-23T12:05:49;6.93;;;4.75;;
77078;SDS011;66004;55.096;38.760;2023-03-23T12:11:58;7.93;;;4.25;;
77078;SDS011;66004;55.096;38.760;2023-03-23T12:14:56;6.35;;;3.80;;
77078;SDS011;66004;55.096;38.760;2023-03-23T12:17:32;8.43;;;4.43;;
77078;SDS011;66004;55.096;38.760;2023-03-23T12:20:20;7.07;;;4.45;;
77078;SDS011;66004;55.096;38.760;2023-03-23T12:36:24;9.38;;;4.60;;
77078;SDS011;66004;55.096;38.760;2023-03-23T12:41:31;6.05;;;3.60;;
77078;SDS011;66004;55.096;38.760;2023-03-23T12:44:05;4.78;;;3.13;;
77078;SDS011;66004;55.096;38.760;2023-03-23T12:46:47;4.93;;;3.40;;
77078;SDS011;66004;55.096;38.760;2023-03-23T12:56:56;6.22;;;3.28;;
77078;SDS011;66004;55.096;38.760;2023-03-23T12:59:35;5.68;;;3.47;;
77078;SDS011;66004;55.096;38.760;2023-03-23T13:05:07;15.88;;;7.95;;
77078;SDS011;66004;55.096;38.760;2023-03-23T13:07:48;7.88;;;3.70;;
77078;SDS011;66004;55.096;38.760;2023-03-23T13:10:47;10.60;;;4.07;;
77078;SDS011;66004;55.096;38.760;2023-03-23T13:13:26;6.05;;;3.60;;
77078;SDS011;66004;55.096;38.760;2023-03-23T13:16:18;5.57;;;3.40;;
77078;SDS011;66004;55.096;38.760;2023-03-23T13:21:41;6.00;;;3.08;;
77078;SDS011;66004;55.096;38.760;2023-03-23T13:24:14;5.70;;;3.45;;
77078;SDS011;66004;55.096;38.760;2023-03-23T13:26:43;8.35;;;3.60;;
77078;SDS011;66004;55.096;38.760;2023-03-23T13:29:19;7.03;;;3.13;;
77078;SDS011;66004;55.096;38.760;2023-03-23T13:31:49;6.30;;;3.05;;
77078;SDS011;66004;55.096;38.760;2023-03-23T13:34:17;6.28;;;2.72;;
77078;SDS011;66004;55.096;38.760;2023-03-23T13:36:58;8.70;;;3.63;;
77078;SDS011;66004;55.096;38.760;2023-03-23T13:39:31;5.88;;;2.95;;
77078;SDS011;66004;55.096;38.760;2023-03-23T13:44:38;5.45;;;2.90;;
77078;SDS011;66004;55.096;38.760;2023-03-23T13:56:04;6.10;;;2.55;;
77078;SDS011;66004;55.096;38.760;2023-03-23T14:08:14;8.30;;;4.15;;
77078;SDS011;66004;55.096;38.760;2023-03-23T14:10:57;6.75;;;3.03;;
77078;SDS011;66004;55.096;38.760;2023-03-23T14:16:13;7.50;;;3.20;;
77078;SDS011;66004;55.096;38.760;2023-03-23T14:18:55;6.40;;;2.83;;
77078;SDS011;66004;55.096;38.760;2023-03-23T14:21:33;6.25;;;2.88;;
77078;SDS011;66004;55.096;38.760;2023-03-23T14:24:01;6.65;;;2.55;;
77078;SDS011;66004;55.096;38.760;2023-03-23T14:26:37;6.18;;;2.60;;
77078;SDS011;66004;55.096;38.760;2023-03-23T14:29:04;5.97;;;2.70;;
77078;SDS011;66004;55.096;38.760;2023-03-23T14:31:30;6.28;;;3.17;;
77078;SDS011;66004;55.096;38.760;2023-03-23T14:34:00;5.82;;;2.65;;
77078;SDS011;66004;55.096;38.760;2023-03-23T14:36:29;7.32;;;3.13;;
77078;SDS011;66004;55.096;38.760;2023-03-23T14:39:06;4.32;;;2.83;;
77078;SDS011;66004;55.096;38.760;2023-03-23T14:41:39;5.90;;;2.78;;
77078;SDS011;66004;55.096;38.760;2023-03-23T14:44:07;8.93;;;2.40;;
77078;SDS011;66004;55.096;38.760;2023-03-23T14:46:38;4.10;;;2.70;;
77078;SDS011;66004;55.096;38.760;2023-03-23T14:49:04;4.25;;;2.65;;
